Time;durP1;ratioP1;P1;durP2;ratioP2;P2;SDS_P1;SDS_P2;PMS_P1;PMS_P2;Temp;Humidity;BMP_temperature;BMP_pressure;BME280_temperature;BME280_humidity;BME280_pressure;Samples;Min_cycle;Max_cycle;Signal;HPM_P1;HPM_P2
2023/05/23 00:00:59;;;;;;;;;;;17.30;99.90;;;;;;4757378;29;20977;-77
2023/05/23 00:03:27;;;;;;;;;;;17.40;99.90;;;;;;4762032;29;20052;-77
2023/05/23 00:05:55;;;;;;;;;;;17.30;99.90;;;;;;4777978;29;19929;-77
2023/05/23 00:08:22;;;;;;;;;;;17.10;99.90;;;;;;4759708;29;19937;-77
2023/05/23 00:10:49;;;;;;;;;;;17.30;99.90;;;;;;4761507;29;22718;-77
2023/05/23 00:13:16;;;;;;;;;;;17.30;99.90;;;;;;4773624;29;19972;-77
2023/05/23 00:15:44;;;;;;;;;;;17.30;99.90;;;;;;4759113;29;20032;-77
2023/05/23 00:18:11;;;;;;;;;;;17.40;99.90;;;;;;4760684;29;19943;-77
2023/05/23 00:20:42;;;;;;;;;;;17.30;99.90;;;;;;4791739;29;19976;-77
2023/05/23 00:23:10;;;;;;;;;;;17.30;99.90;;;;;;4768221;29;19982;-77
2023/05/23 00:25:39;;;;;;;;;;;17.30;99.90;;;;;;4789357;29;20657;-77
2023/05/23 00:28:07;;;;;;;;;;;17.30;99.90;;;;;;4760689;29;21119;-77
2023/05/23 00:30:34;;;;;;;;;;;17.30;99.90;;;;;;4772500;29;19944;-77
2023/05/23 00:33:02;;;;;;;;;;;17.30;99.90;;;;;;4773573;29;20036;-77
2023/05/23 00:35:29;;;;;;;;;;;17.30;99.90;;;;;;4760013;29;19937;-77
2023/05/23 00:37:56;;;;;;;;;;;17.20;99.90;;;;;;4778796;29;19928;-77
2023/05/23 00:40:23;;;;;;;;;;;17.30;99.90;;;;;;4789369;29;20055;-77
2023/05/23 00:42:50;;;;;;;;;;;17.20;99.90;;;;;;4763139;29;20379;-77
2023/05/23 00:45:17;;;;;;;;;;;17.20;99.90;;;;;;4777249;29;19994;-77
2023/05/23 00:47:45;;;;;;;;;;;17.20;99.90;;;;;;4789279;29;19937;-77
2023/05/23 00:50:14;;;;;;;;;;;17.20;99.90;;;;;;4760930;29;20109;-77
2023/05/23 00:52:43;;;;;;;;;;;17.20;99.90;;;;;;4774588;29;19944;-77
2023/05/23 00:55:10;;;;;;;;;;;17.20;99.90;;;;;;4749353;29;19996;-77
2023/05/23 00:57:43;;;;;;;;;;;17.20;99.90;;;;;;4783187;29;19944;-77
2023/05/23 01:00:11;;;;;;;;;;;17.10;99.90;;;;;;4771734;29;19945;-77
2023/05/23 01:02:45;;;;;;;;;;;17.10;99.90;;;;;;4782980;29;19962;-77
2023/05/23 01:05:16;;;;;;;;;;;17.10;99.90;;;;;;4782942;29;19960;-77
2023/05/23 01:07:44;;;;;;;;;;;17.20;99.90;;;;;;4759200;29;19937;-77
2023/05/23 01:10:12;;;;;;;;;;;17.10;99.90;;;;;;4791723;29;19933;-77
2023/05/23 01:12:42;;;;;;;;;;;17.10;99.90;;;;;;4784517;29;20661;-77
2023/05/23 01:15:10;;;;;;;;;;;17.00;99.90;;;;;;4779383;29;19944;-77
2023/05/23 01:17:40;;;;;;;;;;;17.00;99.90;;;;;;4765671;29;22425;-77
2023/05/23 01:20:15;;;;;;;;;;;17.00;99.90;;;;;;4781759;29;20023;-77
2023/05/23 01:23:01;;;;;;;;;;;16.70;99.90;;;;;;4793594;29;20389;-77
2023/05/23 01:25:40;;;;;;;;;;;16.80;99.90;;;;;;4778447;29;20025;-77
2023/05/23 01:28:11;;;;;;;;;;;16.90;99.90;;;;;;4785123;29;19937;-77
2023/05/23 01:30:38;;;;;;;;;;;16.90;99.90;;;;;;4780653;29;19937;-77
2023/05/23 01:33:06;;;;;;;;;;;16.80;99.90;;;;;;4777104;29;20209;-77
2023/05/23 01:35:33;;;;;;;;;;;16.90;99.90;;;;;;4785752;29;19937;-77
2023/05/23 01:38:00;;;;;;;;;;;16.90;99.90;;;;;;4777253;29;19943;-77
2023/05/23 01:40:27;;;;;;;;;;;16.80;99.90;;;;;;4768270;29;20012;-77
2023/05/23 01:42:56;;;;;;;;;;;16.80;99.90;;;;;;4764728;29;19929;-77
2023/05/23 01:45:25;;;;;;;;;;;16.80;99.90;;;;;;4783535;29;19929;-77
2023/05/23 01:47:52;;;;;;;;;;;16.80;99.90;;;;;;4768081;29;20397;-77
2023/05/23 01:50:20;;;;;;;;;;;16.60;99.90;;;;;;4769473;29;19944;-77
2023/05/23 01:52:47;;;;;;;;;;;16.70;99.90;;;;;;4753177;29;19937;-77
2023/05/23 01:55:17;;;;;;;;;;;16.70;99.90;;;;;;4771006;29;22656;-77
2023/05/23 01:57:47;;;;;;;;;;;16.70;99.90;;;;;;4771125;29;20661;-77
2023/05/23 02:00:14;;;;;;;;;;;16.70;99.90;;;;;;4804186;29;20013;-76
2023/05/23 02:02:41;;;;;;;;;;;16.60;99.90;;;;;;4784268;29;20070;-77
2023/05/23 02:05:10;;;;;;;;;;;16.50;99.90;;;;;;4763532;29;19976;-77
2023/05/23 02:07:38;;;;;;;;;;;16.40;99.90;;;;;;4766410;29;19944;-77
2023/05/23 02:10:07;;;;;;;;;;;16.60;99.90;;;;;;4777342;29;22205;-77
2023/05/23 02:12:34;;;;;;;;;;;16.60;99.90;;;;;;4762408;29;19937;-77
2023/05/23 02:15:01;;;;;;;;;;;16.60;99.90;;;;;;4764564;29;22612;-77
2023/05/23 02:17:30;;;;;;;;;;;16.60;99.90;;;;;;4770150;29;20313;-77
2023/05/23 02:19:57;;;;;;;;;;;16.60;99.90;;;;;;4767909;29;19937;-77
2023/05/23 02:22:24;;;;;;;;;;;16.50;99.90;;;;;;4775412;29;19936;-76
2023/05/23 02:24:51;;;;;;;;;;;16.50;99.90;;;;;;4779544;29;20310;-77
2023/05/23 02:27:18;;;;;;;;;;;16.50;99.90;;;;;;4774514;29;20373;-77
2023/05/23 02:29:45;;;;;;;;;;;16.50;99.90;;;;;;4779456;29;19937;-77
2023/05/23 02:32:12;;;;;;;;;;;16.40;99.90;;;;;;4775067;29;20308;-77
2023/05/23 02:34:40;;;;;;;;;;;16.50;99.90;;;;;;4754011;29;20016;-77
2023/05/23 02:37:07;;;;;;;;;;;16.50;99.90;;;;;;4761635;29;19985;-77
2023/05/23 02:39:36;;;;;;;;;;;16.50;99.90;;;;;;4774184;29;19960;-77
2023/05/23 02:42:03;;;;;;;;;;;16.50;99.90;;;;;;4767982;29;19937;-77
2023/05/23 02:44:31;;;;;;;;;;;16.40;99.90;;;;;;4773114;29;19944;-77
2023/05/23 02:46:58;;;;;;;;;;;16.40;99.90;;;;;;4771820;29;19936;-77
2023/05/23 02:49:25;;;;;;;;;;;16.40;99.90;;;;;;4783748;29;19936;-77
2023/05/23 02:51:52;;;;;;;;;;;16.40;99.90;;;;;;4782091;29;19975;-77
2023/05/23 02:54:19;;;;;;;;;;;16.40;99.90;;;;;;4784002;29;19944;-77
2023/05/23 02:56:46;;;;;;;;;;;16.40;99.90;;;;;;4774020;29;19976;-77
2023/05/23 02:59:13;;;;;;;;;;;16.40;99.90;;;;;;4781260;29;22517;-77
2023/05/23 03:01:40;;;;;;;;;;;16.40;99.90;;;;;;4780350;29;19936;-77
2023/05/23 03:04:07;;;;;;;;;;;16.40;99.90;;;;;;4778158;29;19936;-77
2023/05/23 03:06:35;;;;;;;;;;;16.30;99.90;;;;;;4764896;29;20316;-77
2023/05/23 03:09:02;;;;;;;;;;;16.30;99.90;;;;;;4768731;29;20673;-77
2023/05/23 03:11:30;;;;;;;;;;;16.40;99.90;;;;;;4781148;29;19928;-77
2023/05/23 03:13:58;;;;;;;;;;;16.30;99.90;;;;;;4768150;29;20128;-77
2023/05/23 03:16:25;;;;;;;;;;;16.30;99.90;;;;;;4753387;29;19940;-77
2023/05/23 03:18:53;;;;;;;;;;;16.30;99.90;;;;;;4790396;29;19936;-77
2023/05/23 03:21:20;;;;;;;;;;;16.30;99.90;;;;;;4784381;29;19932;-77
2023/05/23 03:23:48;;;;;;;;;;;16.30;99.90;;;;;;4778347;29;19986;-77
2023/05/23 03:26:15;;;;;;;;;;;16.30;99.90;;;;;;4753223;29;20027;-77
2023/05/23 03:28:42;;;;;;;;;;;16.20;99.90;;;;;;4765346;29;20710;-77
2023/05/23 03:31:09;;;;;;;;;;;16.30;99.90;;;;;;4776403;29;19936;-77
2023/05/23 03:33:37;;;;;;;;;;;16.40;99.90;;;;;;4768962;29;19976;-77
2023/05/23 03:36:06;;;;;;;;;;;16.40;99.90;;;;;;4775728;29;19940;-77
2023/05/23 03:38:33;;;;;;;;;;;16.40;99.90;;;;;;4758708;29;19948;-77
2023/05/23 03:41:00;;;;;;;;;;;16.50;99.90;;;;;;4779370;29;19976;-77
2023/05/23 03:43:27;;;;;;;;;;;16.50;99.90;;;;;;4758430;29;20694;-77
2023/05/23 03:45:55;;;;;;;;;;;16.50;99.90;;;;;;4774589;29;19944;-77
2023/05/23 03:48:22;;;;;;;;;;;16.40;99.90;;;;;;4765895;29;19929;-77
2023/05/23 03:50:50;;;;;;;;;;;16.40;99.90;;;;;;4761964;29;19937;-77
2023/05/23 03:53:17;;;;;;;;;;;16.50;99.90;;;;;;4764745;29;19937;-77
2023/05/23 03:55:44;;;;;;;;;;;16.40;99.90;;;;;;4776352;29;20188;-77
2023/05/23 03:58:11;;;;;;;;;;;16.50;99.90;;;;;;4787549;29;19940;-77
2023/05/23 04:00:41;;;;;;;;;;;16.50;99.90;;;;;;4785961;29;19932;-77
2023/05/23 04:03:13;;;;;;;;;;;16.50;99.90;;;;;;4768651;29;19944;-77
2023/05/23 04:05:40;;;;;;;;;;;16.50;99.90;;;;;;4776940;29;19961;-77
2023/05/23 04:08:08;;;;;;;;;;;16.60;99.90;;;;;;4794005;29;20087;-77
2023/05/23 04:10:36;;;;;;;;;;;16.50;99.90;;;;;;4790032;29;19936;-77
2023/05/23 04:13:03;;;;;;;;;;;16.50;99.90;;;;;;4780944;29;19937;-77
2023/05/23 04:15:33;;;;;;;;;;;16.60;99.90;;;;;;4765439;29;20149;-77
2023/05/23 04:18:07;;;;;;;;;;;16.50;99.90;;;;;;4760662;29;20175;-77
2023/05/23 04:20:35;;;;;;;;;;;16.50;99.90;;;;;;4747461;29;22258;-77
2023/05/23 04:23:03;;;;;;;;;;;16.60;99.90;;;;;;4775672;29;19936;-78
2023/05/23 04:25:33;;;;;;;;;;;16.60;99.90;;;;;;4763129;29;19937;-78
2023/05/23 04:28:05;;;;;;;;;;;16.60;99.90;;;;;;4767440;29;22311;-78
2023/05/23 04:30:32;;;;;;;;;;;16.60;99.90;;;;;;4776804;29;19937;-78
2023/05/23 04:32:59;;;;;;;;;;;16.70;99.90;;;;;;4776084;29;20145;-77
2023/05/23 04:35:28;;;;;;;;;;;16.70;99.90;;;;;;4775941;29;20118;-77
2023/05/23 04:37:55;;;;;;;;;;;16.70;99.90;;;;;;4771352;29;19929;-77
2023/05/23 04:40:24;;;;;;;;;;;16.70;99.90;;;;;;4775649;29;19987;-78
2023/05/23 04:43:28;;;;;;;;;;;16.70;99.90;;;;;;4744736;29;19929;-77
2023/05/23 04:46:12;;;;;;;;;;;16.80;99.90;;;;;;4772649;29;20511;-77
2023/05/23 04:48:43;;;;;;;;;;;16.90;99.90;;;;;;4776178;29;20621;-77
2023/05/23 04:51:10;;;;;;;;;;;16.90;99.90;;;;;;4760682;29;19937;-77
2023/05/23 04:53:44;;;;;;;;;;;16.90;99.90;;;;;;4769223;29;19937;-77
2023/05/23 04:56:11;;;;;;;;;;;17.00;99.90;;;;;;4758451;29;19980;-78
2023/05/23 04:58:43;;;;;;;;;;;17.00;99.90;;;;;;4761404;29;19937;-78
2023/05/23 05:01:12;;;;;;;;;;;17.10;99.90;;;;;;4773767;29;19937;-77
2023/05/23 05:03:39;;;;;;;;;;;17.20;99.90;;;;;;4804264;29;19944;-77
2023/05/23 05:06:07;;;;;;;;;;;17.20;99.90;;;;;;4776674;29;19937;-78
2023/05/23 05:08:35;;;;;;;;;;;17.30;99.90;;;;;;4771884;29;19937;-77
2023/05/23 05:11:03;;;;;;;;;;;17.40;99.90;;;;;;4773333;29;20023;-77
2023/05/23 05:13:30;;;;;;;;;;;17.50;99.90;;;;;;4787595;29;19964;-77
2023/05/23 05:15:57;;;;;;;;;;;17.40;99.90;;;;;;4779079;29;20474;-77
2023/05/23 05:18:26;;;;;;;;;;;17.50;99.90;;;;;;4758052;29;20001;-78
2023/05/23 05:20:55;;;;;;;;;;;17.80;99.90;;;;;;4770604;29;19929;-77
2023/05/23 05:23:29;;;;;;;;;;;17.90;99.90;;;;;;4777414;29;19952;-77
2023/05/23 05:25:57;;;;;;;;;;;18.00;99.90;;;;;;4785453;29;20473;-77
2023/05/23 05:28:24;;;;;;;;;;;18.10;99.90;;;;;;4793022;29;20419;-78
2023/05/23 05:30:53;;;;;;;;;;;18.20;99.90;;;;;;4820930;29;20282;-78
2023/05/23 05:33:24;;;;;;;;;;;18.30;99.90;;;;;;4765892;29;19937;-77
2023/05/23 05:36:06;;;;;;;;;;;18.40;99.90;;;;;;4777961;29;19936;-78
2023/05/23 05:38:33;;;;;;;;;;;18.60;99.90;;;;;;4786501;29;19937;-77
2023/05/23 05:41:00;;;;;;;;;;;18.70;99.90;;;;;;4774870;29;19943;-79
2023/05/23 05:43:32;;;;;;;;;;;18.80;99.90;;;;;;4779388;29;20044;-78
2023/05/23 05:45:59;;;;;;;;;;;18.80;99.90;;;;;;4787524;29;20062;-79
2023/05/23 05:48:27;;;;;;;;;;;18.90;99.90;;;;;;4811975;29;20069;-78
2023/05/23 05:50:56;;;;;;;;;;;19.10;99.90;;;;;;4819024;29;20020;-78
2023/05/23 05:53:23;;;;;;;;;;;19.10;99.90;;;;;;4795553;29;20389;-78
2023/05/23 05:55:50;;;;;;;;;;;19.30;99.90;;;;;;4798989;29;20535;-77
2023/05/23 05:58:17;;;;;;;;;;;19.20;99.90;;;;;;4781611;29;19937;-77
2023/05/23 06:00:52;;;;;;;;;;;19.50;99.90;;;;;;4767232;29;19947;-77
2023/05/23 06:03:20;;;;;;;;;;;19.50;99.90;;;;;;4792706;29;19986;-78
2023/05/23 06:05:54;;;;;;;;;;;19.70;99.90;;;;;;4781612;29;19944;-77
2023/05/23 06:08:21;;;;;;;;;;;19.80;99.90;;;;;;4774782;29;20941;-77
2023/05/23 06:10:48;;;;;;;;;;;20.00;99.90;;;;;;4767630;29;22250;-77
2023/05/23 06:13:16;;;;;;;;;;;20.10;99.90;;;;;;4769988;29;19937;-78
2023/05/23 06:15:46;;;;;;;;;;;20.20;99.90;;;;;;4785642;29;19936;-77
2023/05/23 06:18:13;;;;;;;;;;;20.20;99.90;;;;;;4781900;29;20670;-78
2023/05/23 06:20:40;;;;;;;;;;;20.30;99.90;;;;;;4767744;29;19936;-77
2023/05/23 06:23:12;;;;;;;;;;;20.30;99.90;;;;;;4765770;29;20252;-78
2023/05/23 06:25:40;;;;;;;;;;;20.30;99.30;;;;;;4762826;29;19937;-77
2023/05/23 06:28:07;;;;;;;;;;;20.50;99.90;;;;;;4771898;29;20035;-78
2023/05/23 06:30:36;;;;;;;;;;;20.50;99.40;;;;;;4772478;29;19937;-78
2023/05/23 06:33:03;;;;;;;;;;;20.60;99.60;;;;;;4756752;29;20497;-79
2023/05/23 06:35:31;;;;;;;;;;;20.70;97.70;;;;;;4761558;29;19943;-78
2023/05/23 06:38:00;;;;;;;;;;;20.70;98.30;;;;;;4776886;29;22709;-78
2023/05/23 06:40:27;;;;;;;;;;;20.60;99.90;;;;;;4764487;29;20578;-78
2023/05/23 06:42:54;;;;;;;;;;;20.60;98.70;;;;;;4767465;29;19940;-78
2023/05/23 06:45:50;;;;;;;;;;;20.80;99.20;;;;;;4779875;29;19936;-78
2023/05/23 06:48:17;;;;;;;;;;;21.10;98.30;;;;;;4750817;29;19936;-78
2023/05/23 06:50:46;;;;;;;;;;;21.30;98.60;;;;;;4762409;29;19937;-78
2023/05/23 06:53:15;;;;;;;;;;;21.30;99.60;;;;;;4763948;29;20631;-78
2023/05/23 06:55:46;;;;;;;;;;;21.30;98.90;;;;;;4758637;29;19984;-78
2023/05/23 06:58:15;;;;;;;;;;;21.40;97.20;;;;;;4776286;29;20655;-78
2023/05/23 07:00:42;;;;;;;;;;;21.70;98.60;;;;;;4775568;29;19937;-78
2023/05/23 07:03:23;;;;;;;;;;;21.70;97.20;;;;;;4776585;29;19933;-78
2023/05/23 07:05:51;;;;;;;;;;;21.90;99.00;;;;;;4794930;29;19940;-79
2023/05/23 07:08:20;;;;;;;;;;;22.00;96.90;;;;;;4776497;29;20296;-78
2023/05/23 07:11:08;;;;;;;;;;;22.00;95.80;;;;;;4787409;29;19975;-78
2023/05/23 07:13:43;;;;;;;;;;;22.10;95.90;;;;;;4763351;29;20584;-78
2023/05/23 07:16:20;;;;;;;;;;;22.20;94.70;;;;;;4757981;29;19960;-78
2023/05/23 07:19:06;;;;;;;;;;;22.40;96.20;;;;;;4779044;29;20501;-78
2023/05/23 07:21:40;;;;;;;;;;;22.60;96.10;;;;;;4763791;29;20802;-78
2023/05/23 07:24:08;;;;;;;;;;;22.70;94.00;;;;;;4766943;29;19937;-78
2023/05/23 07:26:36;;;;;;;;;;;22.70;92.30;;;;;;4760738;29;19940;-78
2023/05/23 07:29:04;;;;;;;;;;;22.70;91.30;;;;;;4776840;29;19938;-78
2023/05/23 07:31:31;;;;;;;;;;;22.80;92.40;;;;;;4776851;29;19936;-78
2023/05/23 07:33:59;;;;;;;;;;;23.00;93.30;;;;;;4763447;29;22292;-78
2023/05/23 07:36:34;;;;;;;;;;;23.00;93.30;;;;;;4766927;29;20151;-78
2023/05/23 07:39:02;;;;;;;;;;;23.10;94.10;;;;;;4770603;29;22261;-78
2023/05/23 07:41:30;;;;;;;;;;;23.10;93.40;;;;;;4761499;29;20440;-78
2023/05/23 07:43:57;;;;;;;;;;;23.10;95.10;;;;;;4763535;29;20075;-78
2023/05/23 07:46:24;;;;;;;;;;;23.30;95.00;;;;;;4787105;29;20385;-78
2023/05/23 07:48:51;;;;;;;;;;;23.30;92.10;;;;;;4761473;29;20411;-78
2023/05/23 07:51:20;;;;;;;;;;;23.30;92.70;;;;;;4763946;29;19944;-78
2023/05/23 07:53:49;;;;;;;;;;;23.40;91.70;;;;;;4768313;29;19973;-78
2023/05/23 07:56:18;;;;;;;;;;;23.40;91.40;;;;;;4774248;29;20088;-77
2023/05/23 07:58:45;;;;;;;;;;;23.40;90.30;;;;;;4747329;29;19937;-78
2023/05/23 08:01:12;;;;;;;;;;;23.50;91.10;;;;;;4779811;29;20804;-78
2023/05/23 08:04:00;;;;;;;;;;;23.60;91.50;;;;;;4776309;29;19975;-78
2023/05/23 08:06:32;;;;;;;;;;;23.60;91.00;;;;;;4776014;29;19944;-78
2023/05/23 08:09:05;;;;;;;;;;;23.70;91.40;;;;;;4775042;29;19936;-77
2023/05/23 08:11:36;;;;;;;;;;;23.80;91.10;;;;;;4782815;29;19936;-78
2023/05/23 08:14:05;;;;;;;;;;;23.90;91.20;;;;;;4775159;29;19936;-78
2023/05/23 08:16:36;;;;;;;;;;;24.00;90.30;;;;;;4789555;29;20635;-78
2023/05/23 08:19:12;;;;;;;;;;;24.00;91.50;;;;;;4761404;29;19944;-78
2023/05/23 08:21:39;;;;;;;;;;;24.10;90.00;;;;;;4780134;29;20847;-78
2023/05/23 08:24:06;;;;;;;;;;;24.10;89.00;;;;;;4775708;29;19937;-78
2023/05/23 08:26:35;;;;;;;;;;;24.00;86.60;;;;;;4772239;29;20387;-78
2023/05/23 08:29:04;;;;;;;;;;;24.10;89.60;;;;;;4774329;29;19937;-78
2023/05/23 08:31:32;;;;;;;;;;;24.30;90.60;;;;;;4749810;29;20041;-78
2023/05/23 08:34:03;;;;;;;;;;;24.30;89.20;;;;;;4754378;29;20088;-78
2023/05/23 08:36:35;;;;;;;;;;;24.30;89.60;;;;;;4774671;29;19936;-78
2023/05/23 08:39:04;;;;;;;;;;;24.30;88.50;;;;;;4770221;29;20064;-78
2023/05/23 08:41:36;;;;;;;;;;;24.30;86.80;;;;;;4773449;29;19937;-78
2023/05/23 08:44:08;;;;;;;;;;;24.30;88.60;;;;;;4777221;29;22090;-78
2023/05/23 08:46:44;;;;;;;;;;;24.40;88.40;;;;;;4774740;29;19999;-78
2023/05/23 08:49:21;;;;;;;;;;;24.40;88.40;;;;;;4750758;29;20006;-78
2023/05/23 08:51:49;;;;;;;;;;;24.40;86.10;;;;;;4773015;29;19937;-78
2023/05/23 08:54:21;;;;;;;;;;;24.50;90.10;;;;;;4768846;29;19940;-78
2023/05/23 08:56:48;;;;;;;;;;;24.50;89.30;;;;;;4762436;29;19983;-78
2023/05/23 08:59:15;;;;;;;;;;;24.50;87.70;;;;;;4759244;29;20470;-79
2023/05/23 09:01:42;;;;;;;;;;;24.60;88.70;;;;;;4774368;29;19937;-79
2023/05/23 09:04:11;;;;;;;;;;;24.60;88.70;;;;;;4768742;29;19937;-78
2023/05/23 09:06:48;;;;;;;;;;;24.60;86.20;;;;;;4777515;29;19944;-79
2023/05/23 09:09:15;;;;;;;;;;;24.60;85.90;;;;;;4769508;29;21217;-79
2023/05/23 09:11:44;;;;;;;;;;;24.70;86.60;;;;;;4772239;29;22724;-79
2023/05/23 09:14:14;;;;;;;;;;;24.80;87.10;;;;;;4778569;29;19997;-79
2023/05/23 09:16:45;;;;;;;;;;;24.60;85.90;;;;;;4780015;29;20032;-79
2023/05/23 09:19:14;;;;;;;;;;;24.70;84.20;;;;;;4781472;29;20802;-79
2023/05/23 09:21:49;;;;;;;;;;;24.70;84.80;;;;;;4781998;29;19944;-78
2023/05/23 09:24:35;;;;;;;;;;;24.70;86.60;;;;;;4767789;29;19937;-79
2023/05/23 09:27:06;;;;;;;;;;;24.80;86.20;;;;;;4765386;29;20440;-79
2023/05/23 09:29:38;;;;;;;;;;;24.80;86.70;;;;;;4767349;29;20044;-79
2023/05/23 09:32:10;;;;;;;;;;;24.80;84.90;;;;;;4773496;29;19936;-79
2023/05/23 09:34:41;;;;;;;;;;;24.90;85.00;;;;;;4773260;29;19936;-79
2023/05/23 09:37:12;;;;;;;;;;;24.90;84.70;;;;;;4777426;29;19971;-79
2023/05/23 09:39:39;;;;;;;;;;;24.90;81.60;;;;;;4767456;29;20045;-79
2023/05/23 09:42:06;;;;;;;;;;;24.90;81.50;;;;;;4768949;29;20938;-79
2023/05/23 09:44:39;;;;;;;;;;;24.70;80.00;;;;;;4770623;29;20129;-79
2023/05/23 09:47:07;;;;;;;;;;;24.90;81.60;;;;;;4772901;29;20396;-79
2023/05/23 09:49:37;;;;;;;;;;;24.90;82.40;;;;;;4787140;29;19936;-79
2023/05/23 09:52:04;;;;;;;;;;;25.00;81.20;;;;;;4779928;29;20529;-79
2023/05/23 09:54:31;;;;;;;;;;;25.00;81.80;;;;;;4768729;29;19937;-79
2023/05/23 09:56:59;;;;;;;;;;;25.10;83.10;;;;;;4783792;29;19936;-79
2023/05/23 09:59:28;;;;;;;;;;;25.20;83.20;;;;;;4797685;29;19928;-79
2023/05/23 10:01:56;;;;;;;;;;;25.20;80.20;;;;;;4783528;29;19933;-77
2023/05/23 10:04:23;;;;;;;;;;;25.30;78.90;;;;;;4783703;29;20440;-79
2023/05/23 10:06:55;;;;;;;;;;;25.10;79.00;;;;;;4784034;29;20602;-79
2023/05/23 10:09:23;;;;;;;;;;;25.00;77.10;;;;;;4790958;29;20071;-77
2023/05/23 10:12:09;;;;;;;;;;;25.10;80.50;;;;;;4771507;29;19937;-79
2023/05/23 10:14:39;;;;;;;;;;;25.00;82.30;;;;;;4777939;29;19959;-80
2023/05/23 10:17:10;;;;;;;;;;;25.10;81.80;;;;;;4786698;29;19961;-80
2023/05/23 10:19:43;;;;;;;;;;;25.10;78.80;;;;;;4774145;29;20292;-78
2023/05/23 10:22:11;;;;;;;;;;;25.20;80.70;;;;;;4786220;29;19944;-79
2023/05/23 10:24:39;;;;;;;;;;;25.40;80.20;;;;;;4777031;29;19936;-79
2023/05/23 10:27:06;;;;;;;;;;;25.40;79.80;;;;;;4775721;29;20011;-81
2023/05/23 10:29:34;;;;;;;;;;;25.30;78.80;;;;;;4781780;29;19948;-79
2023/05/23 10:32:02;;;;;;;;;;;25.40;80.80;;;;;;4782623;29;19928;-80
2023/05/23 10:34:32;;;;;;;;;;;25.40;80.40;;;;;;4781581;29;20424;-78
2023/05/23 10:37:01;;;;;;;;;;;25.40;82.10;;;;;;4780907;29;20397;-79
2023/05/23 10:39:46;;;;;;;;;;;25.40;79.80;;;;;;4785856;29;20027;-79
2023/05/23 10:42:34;;;;;;;;;;;25.50;80.80;;;;;;4764588;29;20596;-80
2023/05/23 10:45:20;;;;;;;;;;;25.50;79.50;;;;;;4772710;29;19929;-78
2023/05/23 10:47:48;;;;;;;;;;;25.40;80.20;;;;;;4764661;29;19938;-79
2023/05/23 10:50:30;;;;;;;;;;;25.40;78.50;;;;;;4765055;29;20020;-79
2023/05/23 10:52:58;;;;;;;;;;;25.40;79.10;;;;;;4766469;29;19995;-79
2023/05/23 10:55:26;;;;;;;;;;;25.50;78.80;;;;;;4761396;29;19936;-79
2023/05/23 10:58:10;;;;;;;;;;;25.50;78.50;;;;;;4785726;29;19936;-79
2023/05/23 11:00:37;;;;;;;;;;;25.50;76.50;;;;;;4766870;29;19944;-79
2023/05/23 11:03:07;;;;;;;;;;;25.60;75.80;;;;;;4793330;29;19944;-79
2023/05/23 11:05:37;;;;;;;;;;;25.60;77.70;;;;;;4766340;29;19937;-79
2023/05/23 11:08:13;;;;;;;;;;;25.50;76.10;;;;;;4781319;29;19937;-79
2023/05/23 11:10:53;;;;;;;;;;;25.50;75.50;;;;;;4755773;29;21619;-78
2023/05/23 11:13:20;;;;;;;;;;;25.60;76.40;;;;;;4768713;29;19936;-77
2023/05/23 11:15:47;;;;;;;;;;;25.60;75.80;;;;;;4793083;29;19949;-80
2023/05/23 11:18:22;;;;;;;;;;;25.50;73.50;;;;;;4783307;29;19936;-80
2023/05/23 11:20:51;;;;;;;;;;;25.60;74.60;;;;;;4784686;29;19976;-80
2023/05/23 11:23:20;;;;;;;;;;;25.60;75.10;;;;;;4782533;29;20009;-79
2023/05/23 11:25:49;;;;;;;;;;;25.50;74.50;;;;;;4783838;29;22264;-79
2023/05/23 11:28:16;;;;;;;;;;;25.40;68.60;;;;;;4798961;29;20037;-79
2023/05/23 11:30:46;;;;;;;;;;;25.50;76.70;;;;;;4787173;29;19937;-79
2023/05/23 11:33:15;;;;;;;;;;;25.70;75.20;;;;;;4772739;29;19937;-80
2023/05/23 11:35:43;;;;;;;;;;;25.70;71.90;;;;;;4795588;29;19937;-80
2023/05/23 11:38:10;;;;;;;;;;;25.70;72.90;;;;;;4769539;29;20594;-77
2023/05/23 11:40:38;;;;;;;;;;;25.60;72.40;;;;;;4766273;29;20628;-79
2023/05/23 11:43:07;;;;;;;;;;;25.70;73.30;;;;;;4782412;29;19984;-80
2023/05/23 11:45:35;;;;;;;;;;;25.60;74.10;;;;;;4790387;29;20006;-78
2023/05/23 11:48:10;;;;;;;;;;;25.60;73.40;;;;;;4784399;29;20625;-80
2023/05/23 11:50:47;;;;;;;;;;;25.70;76.60;;;;;;4769031;29;22461;-79
2023/05/23 11:53:17;;;;;;;;;;;25.80;73.40;;;;;;4768510;29;19937;-79
2023/05/23 11:55:48;;;;;;;;;;;25.80;74.60;;;;;;4767985;29;19994;-78
2023/05/23 11:58:15;;;;;;;;;;;25.80;75.90;;;;;;4782115;29;20404;-80
2023/05/23 12:00:43;;;;;;;;;;;25.80;76.20;;;;;;4771762;29;19937;-79
2023/05/23 12:03:10;;;;;;;;;;;25.80;77.60;;;;;;4773474;29;20020;-79
2023/05/23 12:05:37;;;;;;;;;;;25.80;76.60;;;;;;4770473;29;19937;-79
2023/05/23 12:08:05;;;;;;;;;;;25.80;75.80;;;;;;4766673;29;20550;-79
2023/05/23 12:10:31;;;;;;;;;;;25.70;74.60;;;;;;4766135;29;19937;-80
2023/05/23 12:12:59;;;;;;;;;;;25.80;76.80;;;;;;4757789;29;20087;-79
2023/05/23 12:15:27;;;;;;;;;;;25.80;74.80;;;;;;4768306;29;19933;-79
2023/05/23 12:17:55;;;;;;;;;;;25.70;75.30;;;;;;4774479;29;19933;-79
2023/05/23 12:20:23;;;;;;;;;;;25.60;73.80;;;;;;4769720;29;19979;-79
2023/05/23 12:22:52;;;;;;;;;;;25.60;76.40;;;;;;4755939;29;19985;-79
2023/05/23 12:25:22;;;;;;;;;;;25.80;76.20;;;;;;4772967;29;20373;-77
2023/05/23 12:27:49;;;;;;;;;;;25.90;73.50;;;;;;4769310;29;19944;-79
2023/05/23 12:30:16;;;;;;;;;;;25.90;73.60;;;;;;4772207;29;20079;-79
2023/05/23 12:32:44;;;;;;;;;;;25.80;76.20;;;;;;4785760;29;19937;-80
2023/05/23 12:35:12;;;;;;;;;;;25.90;77.40;;;;;;4772057;29;20033;-79
2023/05/23 12:37:41;;;;;;;;;;;25.90;76.40;;;;;;4782106;29;19937;-80
2023/05/23 12:40:10;;;;;;;;;;;26.00;74.80;;;;;;4775682;29;20108;-79
2023/05/23 12:42:45;;;;;;;;;;;26.00;74.50;;;;;;4777974;29;19937;-79
2023/05/23 12:45:13;;;;;;;;;;;25.90;76.40;;;;;;4789415;29;19945;-80
2023/05/23 12:47:40;;;;;;;;;;;26.00;77.00;;;;;;4756095;29;20417;-78
2023/05/23 12:50:08;;;;;;;;;;;26.00;75.40;;;;;;4786036;29;19937;-79
2023/05/23 12:52:36;;;;;;;;;;;26.00;76.60;;;;;;4767657;29;19986;-79
2023/05/23 12:55:03;;;;;;;;;;;26.00;75.60;;;;;;4775399;29;20397;-79
2023/05/23 12:57:30;;;;;;;;;;;26.10;76.00;;;;;;4784963;29;20400;-77
2023/05/23 12:59:57;;;;;;;;;;;26.10;77.00;;;;;;4786958;29;22432;-80
2023/05/23 13:02:25;;;;;;;;;;;26.10;77.30;;;;;;4786740;29;20030;-79
2023/05/23 13:04:52;;;;;;;;;;;26.20;76.90;;;;;;4778521;29;19937;-79
2023/05/23 13:07:19;;;;;;;;;;;26.10;75.70;;;;;;4788563;29;20662;-78
2023/05/23 13:09:46;;;;;;;;;;;26.10;74.50;;;;;;4803553;29;20353;-76
2023/05/23 13:12:14;;;;;;;;;;;26.00;74.40;;;;;;4785284;29;19999;-77
2023/05/23 13:14:41;;;;;;;;;;;26.10;74.90;;;;;;4784499;29;20143;-77
2023/05/23 13:17:08;;;;;;;;;;;26.10;76.80;;;;;;4774441;29;19944;-78
2023/05/23 13:19:35;;;;;;;;;;;26.10;74.70;;;;;;4775895;29;19936;-76
2023/05/23 13:22:03;;;;;;;;;;;26.00;75.30;;;;;;4808113;29;20430;-77
2023/05/23 13:24:30;;;;;;;;;;;26.00;75.80;;;;;;4773769;29;22761;-78
2023/05/23 13:26:57;;;;;;;;;;;26.00;75.40;;;;;;4794098;29;19936;-77
2023/05/23 13:29:24;;;;;;;;;;;26.10;75.70;;;;;;4782916;29;20027;-78
2023/05/23 13:31:54;;;;;;;;;;;26.10;74.90;;;;;;4783839;29;20409;-79
2023/05/23 13:34:21;;;;;;;;;;;26.10;74.30;;;;;;4788385;29;19937;-78
2023/05/23 13:36:48;;;;;;;;;;;26.20;73.90;;;;;;4772060;29;19944;-76
2023/05/23 13:39:15;;;;;;;;;;;26.20;74.40;;;;;;4782871;29;20567;-78
2023/05/23 13:41:46;;;;;;;;;;;26.20;74.10;;;;;;4794722;29;20365;-78
2023/05/23 13:44:13;;;;;;;;;;;26.20;73.60;;;;;;4799061;29;19985;-78
2023/05/23 13:46:41;;;;;;;;;;;26.20;72.30;;;;;;4778741;29;19944;-79
2023/05/23 13:49:09;;;;;;;;;;;26.20;74.00;;;;;;4757095;29;20796;-78
2023/05/23 13:51:36;;;;;;;;;;;26.10;73.60;;;;;;4804025;29;19932;-77
2023/05/23 13:54:03;;;;;;;;;;;26.10;72.70;;;;;;4783447;29;20164;-78
2023/05/23 13:56:31;;;;;;;;;;;26.10;72.20;;;;;;4784023;29;20003;-76
2023/05/23 13:58:58;;;;;;;;;;;26.10;73.00;;;;;;4776558;29;19937;-79
2023/05/23 14:01:25;;;;;;;;;;;26.10;73.60;;;;;;4796752;29;19932;-79
2023/05/23 14:03:52;;;;;;;;;;;26.10;74.20;;;;;;4774255;29;19936;-77
2023/05/23 14:06:19;;;;;;;;;;;26.20;73.90;;;;;;4781833;29;19943;-79
2023/05/23 14:08:46;;;;;;;;;;;26.10;72.70;;;;;;4786432;29;22191;-78
2023/05/23 14:11:13;;;;;;;;;;;26.20;72.50;;;;;;4774299;29;20021;-78
2023/05/23 14:13:40;;;;;;;;;;;26.20;71.50;;;;;;4785836;29;22358;-76
2023/05/23 14:16:07;;;;;;;;;;;26.10;71.30;;;;;;4801565;29;19965;-79
2023/05/23 14:18:35;;;;;;;;;;;26.10;71.40;;;;;;4781208;29;20574;-76
2023/05/23 14:21:01;;;;;;;;;;;26.20;71.20;;;;;;4792759;29;20328;-78
2023/05/23 14:23:28;;;;;;;;;;;26.20;70.30;;;;;;4771427;29;20077;-77
2023/05/23 14:25:56;;;;;;;;;;;26.20;70.50;;;;;;4782935;29;19929;-78
2023/05/23 14:28:23;;;;;;;;;;;26.20;70.80;;;;;;4766865;29;19936;-78